Terminal Aerodrome Forecast
Issued by NWS

Home | Current Version | Previous Version | Graphics & Text | Print | Product List | Glossary On
Versions: 1 2 3 4 5 6 7 8 9 10 11 12 13 14 15 16 17 18 19
000
FTUS43 KOAX 151100
TAFCDR
TAF
KCDR 151129Z 1512/1612 25005KT P6SM SKC
     FM151800 26014G20KT P6SM BKN200
     FM160300 28012KT P6SM VCSH SCT030 OVC070=

USA.gov is the U.S. government's official web portal to all federal, state and local government web resources and services.